KPVW/PVW METAR and TAF weather

Enter ICAO airport designator
Station Type Date Time Source
KPVW METAR 2022/01/27 23:55 UTC NOAA

KPVW 272355Z AUTO 06012G18KT 10SM CLR 04/M08 A3028 RMK AO2 T00411077 10074 20034


Station Type Date Time Source
KPVW Decoded METAR 2022/01/27 23:55 UTC NOAA

Plainview, Hale County Airport, TX, United States (KPVW) 34-10-05N 101-43-02W
Jan 27, 2022 - 06:55 PM EST / 2022.01.27 2355 UTC
Wind: from the ENE (060 degrees) at 14 MPH (12 KT) gusting to 21 MPH (18 KT):0
Visibility: 10 mile(s):0
Sky conditions: clear
Temperature: 39.4 F (4.1 C)
Dew Point: 18.1 F (-7.7 C)
Relative Humidity: 41%
Pressure (altimeter): 30.28 in. Hg (1025 hPa)
ob: KPVW 272355Z AUTO 06012G18KT 10SM CLR 04/M08 A3028 RMK AO2 T00411077 10074 20034
cycle: 0

Station Type Date Time Source
KPVW TAF 2022/01/27 18:39 UTC NOAA

TAF KPVW 271736Z 2718/2818 02011KT P6SM BKN250

Example: see airport list